Pace, Florida
Current Conditions -  °F | °C
As of 12:56 AM on Saturday 29 Nov 2014 (Local Time) from KNDZ Reporting Station
Clear Clear  
Wind Chill: 37°   Ceiling: Unl
Heat Index: 41°   Visibility: 10mi
Dew Point: 34°   Wind: 6mph
Humidity: 76%   Direction: 70°ENE
Pressure: 30.27"   Gusts: NA
Location:  30.6712°N, 87.194°W
Report Text: KNDZ 290656Z AUTO 07005KT 10SM CLR 05/01 A3027 RMK AO2 SLP238 T00500011
Loading
Personal Weather Stations






























Interactive Weather Map New forecast layout! Learn more

10-Day Weather Forecast

Advertisements
Track Severe Weather on mobile